KGYY

Gary / Chicago International Airport

Gary, Indiana, USA
METAR KGYY 201945Z 11014KT 10SM SCT012 SCT019 BKN047 25/24 A2983
Observed Flight Rules
Aug-20 @ 19:45 UTC (45 minutes ago) Visual Flight Rules
Wind Visibility Clouds
110° at 14 knots 10 miles
  • Scattered at 1,200' AGL
  • Scattered at 1,900' AGL
  • Broken at 4,700' AGL
Temperatures Readings
Current 25°C / 77°F
Dewpoint 24°C / 75°F
Humidity 94%
Altimeter 29.83" Hg
Pressure 1010 hPa
Elevation 180
METAR KGYY 201945Z 11014KT 10SM SCT012 SCT019 BKN047 25/24 A2983
Observed Flight Rules
Aug-20 @ 19:45 UTC
(45 minutes ago)
VFR
Wind Visibility
110° at 14 knots 10 miles
Clouds
  • Scattered at 1,200' AGL
  • Scattered at 1,900' AGL
  • Broken at 4,700' AGL
Temperature Dewpoint
25°C / 77°F 24°C / 75°F
Humidity Altimeter Pressure
94% 29.83" Hg 1010 hPa